sensor_id;sensor_type;location;lat;lon;timestamp;pressure;altitude;pressure_sealevel;temperature;humidity
46710;BME280;32442;51.514;-0.178;2022-11-20T00:00:50;100929.91;;;21.14;47.13
46710;BME280;32442;51.514;-0.178;2022-11-20T00:03:17;100925.63;;;21.17;47.28
46710;BME280;32442;51.514;-0.178;2022-11-20T00:05:43;100923.03;;;21.20;46.93
46710;BME280;32442;51.514;-0.178;2022-11-20T00:08:10;100919.88;;;21.22;47.29
46710;BME280;32442;51.514;-0.178;2022-11-20T00:10:37;100928.00;;;21.23;47.02
46710;BME280;32442;51.514;-0.178;2022-11-20T00:13:04;100929.69;;;21.24;47.01
46710;BME280;32442;51.514;-0.178;2022-11-20T00:15:31;100934.97;;;21.26;46.89
46710;BME280;32442;51.514;-0.178;2022-11-20T00:17:58;100928.22;;;21.27;46.77
46710;BME280;32442;51.514;-0.178;2022-11-20T00:20:24;100927.91;;;21.28;47.17
46710;BME280;32442;51.514;-0.178;2022-11-20T00:22:51;100918.63;;;21.28;46.79
46710;BME280;32442;51.514;-0.178;2022-11-20T00:25:18;100921.16;;;21.29;47.01
46710;BME280;32442;51.514;-0.178;2022-11-20T00:27:44;100909.91;;;21.29;47.24
46710;BME280;32442;51.514;-0.178;2022-11-20T00:30:11;100900.63;;;21.29;47.17
46710;BME280;32442;51.514;-0.178;2022-11-20T00:32:40;100911.03;;;21.28;46.95
46710;BME280;32442;51.514;-0.178;2022-11-20T00:35:07;100900.09;;;21.27;46.92
46710;BME280;32442;51.514;-0.178;2022-11-20T00:37:33;100896.16;;;21.28;47.10
46710;BME280;32442;51.514;-0.178;2022-11-20T00:40:00;100890.00;;;21.26;46.88
46710;BME280;32442;51.514;-0.178;2022-11-20T00:42:30;100890.00;;;21.26;46.84
46710;BME280;32442;51.514;-0.178;2022-11-20T00:44:59;100884.38;;;21.26;46.79
46710;BME280;32442;51.514;-0.178;2022-11-20T00:47:25;100881.59;;;21.26;46.99
46710;BME280;32442;51.514;-0.178;2022-11-20T00:49:52;100881.59;;;21.26;47.44
46710;BME280;32442;51.514;-0.178;2022-11-20T00:52:19;100883.06;;;21.23;47.25
46710;BME280;32442;51.514;-0.178;2022-11-20T00:54:45;100877.44;;;21.23;47.55
46710;BME280;32442;51.514;-0.178;2022-11-20T00:57:12;100872.94;;;21.22;47.58
46710;BME280;32442;51.514;-0.178;2022-11-20T00:59:39;100868.47;;;21.21;47.69
46710;BME280;32442;51.514;-0.178;2022-11-20T01:02:05;100866.00;;;21.20;47.39
46710;BME280;32442;51.514;-0.178;2022-11-20T01:04:32;100867.13;;;21.19;47.29
46710;BME280;32442;51.514;-0.178;2022-11-20T01:06:59;100859.00;;;21.17;47.79
46710;BME280;32442;51.514;-0.178;2022-11-20T01:09:25;100868.91;;;21.15;47.36
46710;BME280;32442;51.514;-0.178;2022-11-20T01:11:52;100860.78;;;21.13;47.79
46710;BME280;32442;51.514;-0.178;2022-11-20T01:14:19;100853.47;;;21.12;47.80
46710;BME280;32442;51.514;-0.178;2022-11-20T01:16:47;100854.94;;;21.10;47.87
46710;BME280;32442;51.514;-0.178;2022-11-20T01:19:18;100851.59;;;21.08;47.68
46710;BME280;32442;51.514;-0.178;2022-11-20T01:21:47;100853.38;;;21.04;47.88
46710;BME280;32442;51.514;-0.178;2022-11-20T01:24:14;100848.09;;;21.02;47.72
46710;BME280;32442;51.514;-0.178;2022-11-20T01:26:42;100850.06;;;21.02;47.75
46710;BME280;32442;51.514;-0.178;2022-11-20T01:29:12;100852.34;;;21.00;47.97
46710;BME280;32442;51.514;-0.178;2022-11-20T01:31:39;100840.91;;;20.96;48.04
46710;BME280;32442;51.514;-0.178;2022-11-20T01:34:09;100838.94;;;20.97;47.99
46710;BME280;32442;51.514;-0.178;2022-11-20T01:36:36;100827.19;;;20.95;47.88
46710;BME280;32442;51.514;-0.178;2022-11-20T01:39:05;100831.97;;;20.94;48.30
46710;BME280;32442;51.514;-0.178;2022-11-20T01:41:32;100819.41;;;20.92;48.23
46710;BME280;32442;51.514;-0.178;2022-11-20T01:44:19;100818.56;;;20.91;48.28
46710;BME280;32442;51.514;-0.178;2022-11-20T01:46:52;100818.88;;;20.90;48.02
46710;BME280;32442;51.514;-0.178;2022-11-20T01:49:24;100804.31;;;20.88;48.05
46710;BME280;32442;51.514;-0.178;2022-11-20T01:51:53;100806.59;;;20.85;48.32
46710;BME280;32442;51.514;-0.178;2022-11-20T01:57:03;100799.00;;;20.86;48.34
46710;BME280;32442;51.514;-0.178;2022-11-20T01:59:31;100790.09;;;20.84;48.12
46710;BME280;32442;51.514;-0.178;2022-11-20T02:01:57;100787.59;;;20.82;48.36
46710;BME280;32442;51.514;-0.178;2022-11-20T02:04:24;100782.16;;;20.86;48.05
46710;BME280;32442;51.514;-0.178;2022-11-20T02:06:53;100788.09;;;20.84;48.23
46710;BME280;32442;51.514;-0.178;2022-11-20T02:09:21;100781.66;;;20.84;48.57
46710;BME280;32442;51.514;-0.178;2022-11-20T02:11:49;100774.38;;;20.83;48.23
46710;BME280;32442;51.514;-0.178;2022-11-20T02:14:15;100764.59;;;20.80;48.56
46710;BME280;32442;51.514;-0.178;2022-11-20T02:16:46;100767.72;;;20.79;48.34
46710;BME280;32442;51.514;-0.178;2022-11-20T02:19:22;100772.69;;;20.82;48.58
46710;BME280;32442;51.514;-0.178;2022-11-20T02:21:56;100758.66;;;20.82;48.50
46710;BME280;32442;51.514;-0.178;2022-11-20T02:24:26;100759.81;;;20.81;48.46
46710;BME280;32442;51.514;-0.178;2022-11-20T02:26:53;100755.03;;;20.81;48.46
46710;BME280;32442;51.514;-0.178;2022-11-20T02:29:25;100746.59;;;20.81;47.91
46710;BME280;32442;51.514;-0.178;2022-11-20T02:31:53;100743.28;;;20.79;47.88
46710;BME280;32442;51.514;-0.178;2022-11-20T02:34:21;100738.81;;;20.78;47.96
46710;BME280;32442;51.514;-0.178;2022-11-20T02:36:48;100739.13;;;20.77;48.03
46710;BME280;32442;51.514;-0.178;2022-11-20T02:39:15;100718.97;;;20.75;48.04
46710;BME280;32442;51.514;-0.178;2022-11-20T02:41:45;100728.34;;;20.70;48.30
46710;BME280;32442;51.514;-0.178;2022-11-20T02:44:12;100725.41;;;20.75;47.85
46710;BME280;32442;51.514;-0.178;2022-11-20T02:46:39;100710.34;;;20.71;48.21
46710;BME280;32442;51.514;-0.178;2022-11-20T02:49:05;100711.69;;;20.74;48.03
46710;BME280;32442;51.514;-0.178;2022-11-20T02:51:32;100709.53;;;20.71;47.99
46710;BME280;32442;51.514;-0.178;2022-11-20T02:53:59;100701.94;;;20.71;48.08
46710;BME280;32442;51.514;-0.178;2022-11-20T02:56:25;100704.50;;;20.68;47.81
46710;BME280;32442;51.514;-0.178;2022-11-20T02:58:52;100704.19;;;20.69;48.26
46710;BME280;32442;51.514;-0.178;2022-11-20T03:01:19;100708.16;;;20.68;47.81
46710;BME280;32442;51.514;-0.178;2022-11-20T03:03:45;100704.84;;;20.66;47.93
46710;BME280;32442;51.514;-0.178;2022-11-20T03:06:15;100696.19;;;20.63;47.82
46710;BME280;32442;51.514;-0.178;2022-11-20T03:08:42;100699.00;;;20.63;47.91
46710;BME280;32442;51.514;-0.178;2022-11-20T03:11:09;100698.22;;;20.62;48.08
46710;BME280;32442;51.514;-0.178;2022-11-20T03:13:35;100690.28;;;20.64;48.27
46710;BME280;32442;51.514;-0.178;2022-11-20T03:16:12;100682.81;;;20.60;48.22
46710;BME280;32442;51.514;-0.178;2022-11-20T03:18:39;100686.16;;;20.62;48.27
46710;BME280;32442;51.514;-0.178;2022-11-20T03:21:06;100678.13;;;20.55;48.27
46710;BME280;32442;51.514;-0.178;2022-11-20T03:23:33;100679.63;;;20.53;48.19
46710;BME280;32442;51.514;-0.178;2022-11-20T03:26:22;100674.00;;;20.53;48.06
46710;BME280;32442;51.514;-0.178;2022-11-20T03:29:08;100676.81;;;20.53;48.28
46710;BME280;32442;51.514;-0.178;2022-11-20T03:31:38;100671.50;;;20.51;48.30
46710;BME280;32442;51.514;-0.178;2022-11-20T03:34:07;100666.53;;;20.48;48.25
46710;BME280;32442;51.514;-0.178;2022-11-20T03:36:34;100666.53;;;20.48;48.37
46710;BME280;32442;51.514;-0.178;2022-11-20T03:39:00;100667.13;;;20.45;48.29
46710;BME280;32442;51.514;-0.178;2022-11-20T03:41:28;100661.31;;;20.41;48.22
46710;BME280;32442;51.514;-0.178;2022-11-20T03:43:56;100661.31;;;20.41;48.01
46710;BME280;32442;51.514;-0.178;2022-11-20T03:46:24;100667.25;;;20.40;48.52
46710;BME280;32442;51.514;-0.178;2022-11-20T03:48:51;100658.63;;;20.36;48.24
46710;BME280;32442;51.514;-0.178;2022-11-20T03:51:19;100646.06;;;20.34;48.42
46710;BME280;32442;51.514;-0.178;2022-11-20T03:53:47;100644.94;;;20.35;48.00
46710;BME280;32442;51.514;-0.178;2022-11-20T03:56:14;100646.38;;;20.32;48.48
46710;BME280;32442;51.514;-0.178;2022-11-20T03:58:41;100641.38;;;20.29;48.66
46710;BME280;32442;51.514;-0.178;2022-11-20T04:01:12;100639.69;;;20.28;48.51
46710;BME280;32442;51.514;-0.178;2022-11-20T04:03:40;100629.97;;;20.26;48.77
46710;BME280;32442;51.514;-0.178;2022-11-20T04:08:37;100620.47;;;20.22;48.89
46710;BME280;32442;51.514;-0.178;2022-11-20T04:13:36;100613.00;;;20.17;48.93
46710;BME280;32442;51.514;-0.178;2022-11-20T04:16:04;100615.81;;;20.17;49.25
46710;BME280;32442;51.514;-0.178;2022-11-20T04:18:33;100610.53;;;20.16;49.02
46710;BME280;32442;51.514;-0.178;2022-11-20T04:21:00;100608.34;;;20.13;49.29
46710;BME280;32442;51.514;-0.178;2022-11-20T04:23:27;100610.34;;;20.12;49.08
46710;BME280;32442;51.514;-0.178;2022-11-20T04:25:54;100612.81;;;20.14;49.43
46710;BME280;32442;51.514;-0.178;2022-11-20T04:28:21;100610.13;;;20.09;49.67
46710;BME280;32442;51.514;-0.178;2022-11-20T04:30:47;100600.56;;;20.10;49.23
46710;BME280;32442;51.514;-0.178;2022-11-20T04:33:14;100591.31;;;20.09;49.37
46710;BME280;32442;51.514;-0.178;2022-11-20T04:35:40;100587.69;;;20.09;49.50
46710;BME280;32442;51.514;-0.178;2022-11-20T04:38:07;100583.84;;;20.05;49.81
46710;BME280;32442;51.514;-0.178;2022-11-20T04:40:34;100583.34;;;20.03;49.92
46710;BME280;32442;51.514;-0.178;2022-11-20T04:43:00;100581.16;;;19.99;50.03
46710;BME280;32442;51.514;-0.178;2022-11-20T04:45:27;100582.81;;;20.01;50.01
46710;BME280;32442;51.514;-0.178;2022-11-20T04:47:54;100579.19;;;20.00;49.66
46710;BME280;32442;51.514;-0.178;2022-11-20T04:50:20;100582.09;;;19.95;50.16
46710;BME280;32442;51.514;-0.178;2022-11-20T04:52:50;100574.84;;;19.94;49.86
46710;BME280;32442;51.514;-0.178;2022-11-20T04:55:17;100577.94;;;19.92;50.49
46710;BME280;32442;51.514;-0.178;2022-11-20T04:57:43;100566.75;;;19.92;50.10
46710;BME280;32442;51.514;-0.178;2022-11-20T05:00:10;100565.91;;;19.92;50.41
46710;BME280;32442;51.514;-0.178;2022-11-20T05:02:37;100557.78;;;19.90;50.18
46710;BME280;32442;51.514;-0.178;2022-11-20T05:05:04;100547.09;;;19.92;50.24
46710;BME280;32442;51.514;-0.178;2022-11-20T05:07:30;100540.97;;;19.90;50.49
46710;BME280;32442;51.514;-0.178;2022-11-20T05:09:57;100540.13;;;19.90;50.19
46710;BME280;32442;51.514;-0.178;2022-11-20T05:12:24;100532.06;;;19.88;50.21
46710;BME280;32442;51.514;-0.178;2022-11-20T05:14:51;100526.75;;;19.87;50.47
46710;BME280;32442;51.514;-0.178;2022-11-20T05:17:17;100523.97;;;19.87;50.53
46710;BME280;32442;51.514;-0.178;2022-11-20T05:19:44;100518.66;;;19.85;50.87
46710;BME280;32442;51.514;-0.178;2022-11-20T05:22:17;100511.06;;;19.86;50.55
46710;BME280;32442;51.514;-0.178;2022-11-20T05:24:43;100512.25;;;19.85;50.51
46710;BME280;32442;51.514;-0.178;2022-11-20T05:27:10;100509.22;;;19.81;50.82
46710;BME280;32442;51.514;-0.178;2022-11-20T05:29:37;100506.41;;;19.81;50.71
46710;BME280;32442;51.514;-0.178;2022-11-20T05:32:03;100493.56;;;19.80;51.01
46710;BME280;32442;51.514;-0.178;2022-11-20T05:34:32;100496.56;;;19.84;50.87
46710;BME280;32442;51.514;-0.178;2022-11-20T05:36:58;100484.31;;;19.80;50.97
46710;BME280;32442;51.514;-0.178;2022-11-20T05:39:25;100491.06;;;19.79;51.15
46710;BME280;32442;51.514;-0.178;2022-11-20T05:41:52;100489.94;;;19.80;50.99
46710;BME280;32442;51.514;-0.178;2022-11-20T05:44:38;100491.38;;;19.77;51.29
46710;BME280;32442;51.514;-0.178;2022-11-20T05:47:05;100487.44;;;19.78;51.21
46710;BME280;32442;51.514;-0.178;2022-11-20T05:49:32;100481.81;;;19.78;51.01
46710;BME280;32442;51.514;-0.178;2022-11-20T05:51:59;100474.88;;;19.76;51.02
46710;BME280;32442;51.514;-0.178;2022-11-20T05:54:25;100481.94;;;19.73;51.56
46710;BME280;32442;51.514;-0.178;2022-11-20T05:56:52;100479.97;;;19.74;51.48
46710;BME280;32442;51.514;-0.178;2022-11-20T05:59:19;100472.38;;;19.74;51.33
46710;BME280;32442;51.514;-0.178;2022-11-20T06:01:46;100465.94;;;19.74;51.55
46710;BME280;32442;51.514;-0.178;2022-11-20T06:04:12;100465.22;;;19.68;51.65
46710;BME280;32442;51.514;-0.178;2022-11-20T06:06:39;100451.75;;;19.70;51.50
46710;BME280;32442;51.514;-0.178;2022-11-20T06:09:06;100459.94;;;19.67;51.64
46710;BME280;32442;51.514;-0.178;2022-11-20T06:11:32;100455.16;;;19.67;51.51
46710;BME280;32442;51.514;-0.178;2022-11-20T06:13:59;100454.34;;;19.67;51.84
46710;BME280;32442;51.514;-0.178;2022-11-20T06:16:25;100446.25;;;19.65;51.79
46710;BME280;32442;51.514;-0.178;2022-11-20T06:18:52;100438.16;;;19.64;51.76
46710;BME280;32442;51.514;-0.178;2022-11-20T06:21:19;100429.13;;;19.67;51.46
46710;BME280;32442;51.514;-0.178;2022-11-20T06:23:47;100429.53;;;19.60;51.79
46710;BME280;32442;51.514;-0.178;2022-11-20T06:26:21;100420.59;;;19.58;52.14
46710;BME280;32442;51.514;-0.178;2022-11-20T06:28:48;100413.25;;;19.62;51.94
46710;BME280;32442;51.514;-0.178;2022-11-20T06:31:15;100413.88;;;19.59;52.12
46710;BME280;32442;51.514;-0.178;2022-11-20T06:33:43;100412.53;;;19.57;52.18
46710;BME280;32442;51.514;-0.178;2022-11-20T06:36:10;100413.88;;;19.59;52.28
46710;BME280;32442;51.514;-0.178;2022-11-20T06:38:38;100404.13;;;19.57;52.30
46710;BME280;32442;51.514;-0.178;2022-11-20T06:41:08;100408.59;;;19.58;52.00
46710;BME280;32442;51.514;-0.178;2022-11-20T06:43:36;100409.41;;;19.58;51.76
46710;BME280;32442;51.514;-0.178;2022-11-20T06:46:03;100409.94;;;19.60;51.64
46710;BME280;32442;51.514;-0.178;2022-11-20T06:48:31;100406.94;;;19.57;52.01
46710;BME280;32442;51.514;-0.178;2022-11-20T06:50:58;100408.06;;;19.56;52.37
46710;BME280;32442;51.514;-0.178;2022-11-20T06:53:25;100399.34;;;19.57;52.31
46710;BME280;32442;51.514;-0.178;2022-11-20T06:55:55;100402.78;;;19.54;52.42
46710;BME280;32442;51.514;-0.178;2022-11-20T06:58:22;100405.25;;;19.56;52.32
46710;BME280;32442;51.514;-0.178;2022-11-20T07:00:49;100408.38;;;19.54;52.22
46710;BME280;32442;51.514;-0.178;2022-11-20T07:03:15;100424.34;;;19.53;52.41
46710;BME280;32442;51.514;-0.178;2022-11-20T07:05:42;100429.66;;;19.55;52.44
46710;BME280;32442;51.514;-0.178;2022-11-20T07:08:09;100430.50;;;19.56;52.80
46710;BME280;32442;51.514;-0.178;2022-11-20T07:10:35;100425.72;;;19.56;52.94
46710;BME280;32442;51.514;-0.178;2022-11-20T07:13:02;100406.00;;;19.61;53.04
46710;BME280;32442;51.514;-0.178;2022-11-20T07:15:29;100396.94;;;19.64;53.38
46710;BME280;32442;51.514;-0.178;2022-11-20T07:17:58;100392.69;;;19.67;53.67
46710;BME280;32442;51.514;-0.178;2022-11-20T07:20:24;100394.03;;;19.69;53.83
46710;BME280;32442;51.514;-0.178;2022-11-20T07:22:55;100402.63;;;19.73;53.50
46710;BME280;32442;51.514;-0.178;2022-11-20T07:25:22;100401.66;;;19.77;53.77
46710;BME280;32442;51.514;-0.178;2022-11-20T07:27:49;100395.09;;;19.82;53.63
46710;BME280;32442;51.514;-0.178;2022-11-20T07:30:16;100403.72;;;19.85;54.00
46710;BME280;32442;51.514;-0.178;2022-11-20T07:32:45;100397.16;;;19.90;54.03
46710;BME280;32442;51.514;-0.178;2022-11-20T07:35:20;100402.63;;;19.95;54.06
46710;BME280;32442;51.514;-0.178;2022-11-20T07:37:47;100402.84;;;19.98;54.31
46710;BME280;32442;51.514;-0.178;2022-11-20T07:40:15;100402.69;;;20.04;54.37
46710;BME280;32442;51.514;-0.178;2022-11-20T07:45:22;100399.66;;;20.14;54.54
46710;BME280;32442;51.514;-0.178;2022-11-20T07:47:49;100399.03;;;20.17;54.22
46710;BME280;32442;51.514;-0.178;2022-11-20T07:50:16;100400.88;;;20.21;54.53
46710;BME280;32442;51.514;-0.178;2022-11-20T07:52:49;100391.50;;;20.26;54.42
46710;BME280;32442;51.514;-0.178;2022-11-20T07:55:17;100399.78;;;20.31;54.08
46710;BME280;32442;51.514;-0.178;2022-11-20T07:57:43;100402.47;;;20.36;54.29
46710;BME280;32442;51.514;-0.178;2022-11-20T08:00:10;100407.13;;;20.40;54.36
46710;BME280;32442;51.514;-0.178;2022-11-20T08:02:38;100406.97;;;20.46;54.43
46710;BME280;32442;51.514;-0.178;2022-11-20T08:05:05;100408.81;;;20.50;54.08
46710;BME280;32442;51.514;-0.178;2022-11-20T08:07:38;100411.50;;;20.55;54.45
46710;BME280;32442;51.514;-0.178;2022-11-20T08:10:06;100414.50;;;20.59;54.25
46710;BME280;32442;51.514;-0.178;2022-11-20T08:12:33;100420.47;;;20.66;53.85
46710;BME280;32442;51.514;-0.178;2022-11-20T08:15:24;100419.69;;;20.74;53.40
46710;BME280;32442;51.514;-0.178;2022-11-20T08:17:50;100426.63;;;20.76;53.02
46710;BME280;32442;51.514;-0.178;2022-11-20T08:20:37;100433.59;;;20.79;52.55
46710;BME280;32442;51.514;-0.178;2022-11-20T08:23:05;100441.38;;;20.82;51.92
46710;BME280;32442;51.514;-0.178;2022-11-20T08:25:33;100433.47;;;20.84;51.27
46710;BME280;32442;51.514;-0.178;2022-11-20T08:28:01;100442.06;;;20.88;51.55
46710;BME280;32442;51.514;-0.178;2022-11-20T08:30:36;100452.78;;;20.85;50.98
46710;BME280;32442;51.514;-0.178;2022-11-20T08:33:07;100465.34;;;20.88;51.04
46710;BME280;32442;51.514;-0.178;2022-11-20T08:35:37;100457.75;;;20.89;50.29
46710;BME280;32442;51.514;-0.178;2022-11-20T08:38:05;100460.56;;;20.89;50.09
46710;BME280;32442;51.514;-0.178;2022-11-20T08:40:32;100453.78;;;20.90;49.97
46710;BME280;32442;51.514;-0.178;2022-11-20T08:42:58;100445.34;;;20.90;49.74
46710;BME280;32442;51.514;-0.178;2022-11-20T08:45:26;100461.91;;;20.91;49.67
46710;BME280;32442;51.514;-0.178;2022-11-20T08:48:00;100463.03;;;20.90;49.67
46710;BME280;32442;51.514;-0.178;2022-11-20T08:50:27;100462.19;;;20.90;49.39
46710;BME280;32442;51.514;-0.178;2022-11-20T08:53:01;100466.69;;;20.91;49.20
46710;BME280;32442;51.514;-0.178;2022-11-20T08:55:27;100460.22;;;20.90;49.53
46710;BME280;32442;51.514;-0.178;2022-11-20T08:57:54;100468.66;;;20.90;49.46
46710;BME280;32442;51.514;-0.178;2022-11-20T09:00:23;100471.16;;;20.92;49.43
46710;BME280;32442;51.514;-0.178;2022-11-20T09:02:59;100467.50;;;20.91;49.31
46710;BME280;32442;51.514;-0.178;2022-11-20T09:05:27;100477.91;;;20.91;48.75
46710;BME280;32442;51.514;-0.178;2022-11-20T09:07:57;100467.03;;;20.89;48.88
46710;BME280;32442;51.514;-0.178;2022-11-20T09:10:24;100473.44;;;20.90;48.97
46710;BME280;32442;51.514;-0.178;2022-11-20T09:12:54;100469.81;;;20.89;48.60
46710;BME280;32442;51.514;-0.178;2022-11-20T09:15:24;100473.78;;;20.88;48.54
46710;BME280;32442;51.514;-0.178;2022-11-20T09:17:57;100472.63;;;20.89;48.39
46710;BME280;32442;51.514;-0.178;2022-11-20T09:20:25;100469.31;;;20.87;48.38
46710;BME280;32442;51.514;-0.178;2022-11-20T09:22:57;100467.34;;;20.88;48.78
46710;BME280;32442;51.514;-0.178;2022-11-20T09:25:28;100456.59;;;20.90;49.16
46710;BME280;32442;51.514;-0.178;2022-11-20T09:27:55;100469.75;;;20.80;48.82
46710;BME280;32442;51.514;-0.178;2022-11-20T09:30:21;100479.38;;;20.57;46.21
46710;BME280;32442;51.514;-0.178;2022-11-20T09:32:54;100484.34;;;20.60;47.30
46710;BME280;32442;51.514;-0.178;2022-11-20T09:35:25;100488.81;;;20.61;47.45
46710;BME280;32442;51.514;-0.178;2022-11-20T09:37:52;100497.25;;;20.61;47.57
46710;BME280;32442;51.514;-0.178;2022-11-20T09:40:27;100498.06;;;20.62;47.83
46710;BME280;32442;51.514;-0.178;2022-11-20T09:43:12;100498.91;;;20.62;47.76
46710;BME280;32442;51.514;-0.178;2022-11-20T09:48:54;100510.25;;;20.57;47.78
46710;BME280;32442;51.514;-0.178;2022-11-20T09:54:00;100501.50;;;20.59;48.11
46710;BME280;32442;51.514;-0.178;2022-11-20T09:56:33;100499.03;;;20.57;47.75
46710;BME280;32442;51.514;-0.178;2022-11-20T09:59:02;100488.28;;;20.59;47.68
46710;BME280;32442;51.514;-0.178;2022-11-20T10:01:40;100474.59;;;20.58;47.99
46710;BME280;32442;51.514;-0.178;2022-11-20T10:04:17;100466.19;;;20.58;47.82
46710;BME280;32442;51.514;-0.178;2022-11-20T10:06:47;100469.78;;;20.58;47.97
46710;BME280;32442;51.514;-0.178;2022-11-20T10:09:40;100478.84;;;20.55;47.48
46710;BME280;32442;51.514;-0.178;2022-11-20T10:12:21;100476.88;;;20.56;47.63
46710;BME280;32442;51.514;-0.178;2022-11-20T10:31:08;100463.44;;;20.44;48.18
46710;BME280;32442;51.514;-0.178;2022-11-20T10:33:38;100469.06;;;20.44;47.86
46710;BME280;32442;51.514;-0.178;2022-11-20T10:36:26;100466.25;;;20.44;47.86
46710;BME280;32442;51.514;-0.178;2022-11-20T10:38:56;100461.25;;;20.41;48.01
46710;BME280;32442;51.514;-0.178;2022-11-20T10:41:32;100467.72;;;20.41;48.22
46710;BME280;32442;51.514;-0.178;2022-11-20T10:44:05;100472.19;;;20.42;48.11
46710;BME280;32442;51.514;-0.178;2022-11-20T10:46:44;100474.97;;;20.42;48.00
46710;BME280;32442;51.514;-0.178;2022-11-20T10:49:14;100469.19;;;20.39;47.85
46710;BME280;32442;51.514;-0.178;2022-11-20T10:54:20;100475.41;;;20.36;48.18
46710;BME280;32442;51.514;-0.178;2022-11-20T10:56:52;100474.59;;;20.35;48.15
46710;BME280;32442;51.514;-0.178;2022-11-20T11:01:49;100476.44;;;20.40;48.06
46710;BME280;32442;51.514;-0.178;2022-11-20T11:07:06;100472.47;;;20.41;48.17
46710;BME280;32442;51.514;-0.178;2022-11-20T11:09:41;100476.66;;;20.44;48.40
46710;BME280;32442;51.514;-0.178;2022-11-20T11:12:12;100479.44;;;20.44;48.30
46710;BME280;32442;51.514;-0.178;2022-11-20T11:14:43;100480.78;;;20.46;48.38
46710;BME280;32442;51.514;-0.178;2022-11-20T11:17:21;100468.41;;;20.47;48.00
46710;BME280;32442;51.514;-0.178;2022-11-20T11:20:05;100469.25;;;20.48;48.13
46710;BME280;32442;51.514;-0.178;2022-11-20T11:22:34;100474.50;;;20.49;48.30
46710;BME280;32442;51.514;-0.178;2022-11-20T11:25:00;100475.88;;;20.52;48.23
46710;BME280;32442;51.514;-0.178;2022-11-20T11:27:27;100483.16;;;20.53;48.36
46710;BME280;32442;51.514;-0.178;2022-11-20T11:30:11;100483.34;;;20.56;48.31
46710;BME280;32442;51.514;-0.178;2022-11-20T11:32:39;100471.44;;;20.59;48.11
46710;BME280;32442;51.514;-0.178;2022-11-20T11:35:27;100470.50;;;20.64;48.41
46710;BME280;32442;51.514;-0.178;2022-11-20T11:38:01;100469.88;;;20.67;48.54
46710;BME280;32442;51.514;-0.178;2022-11-20T11:40:29;100465.56;;;20.69;48.44
46710;BME280;32442;51.514;-0.178;2022-11-20T11:43:02;100461.81;;;20.74;48.59
46710;BME280;32442;51.514;-0.178;2022-11-20T11:45:30;100469.25;;;20.78;48.85
46710;BME280;32442;51.514;-0.178;2022-11-20T11:47:57;100462.16;;;20.81;49.05
46710;BME280;32442;51.514;-0.178;2022-11-20T11:50:27;100454.75;;;20.85;48.90
46710;BME280;32442;51.514;-0.178;2022-11-20T11:55:32;100429.03;;;20.92;48.61
46710;BME280;32442;51.514;-0.178;2022-11-20T12:00:36;100442.63;;;20.98;48.48
46710;BME280;32442;51.514;-0.178;2022-11-20T12:08:03;100439.06;;;21.15;48.44
46710;BME280;32442;51.514;-0.178;2022-11-20T12:16:01;100448.38;;;21.33;47.80
46710;BME280;32442;51.514;-0.178;2022-11-20T12:18:29;100446.25;;;21.38;48.28
46710;BME280;32442;51.514;-0.178;2022-11-20T12:21:18;100442.78;;;21.41;47.69
46710;BME280;32442;51.514;-0.178;2022-11-20T12:26:35;100452.88;;;21.51;47.77
46710;BME280;32442;51.514;-0.178;2022-11-20T12:29:13;100455.88;;;21.54;47.45
46710;BME280;32442;51.514;-0.178;2022-11-20T12:39:41;100455.72;;;21.68;46.19
46710;BME280;32442;51.514;-0.178;2022-11-20T12:42:13;100461.88;;;21.70;46.40
46710;BME280;32442;51.514;-0.178;2022-11-20T12:45:18;100464.84;;;21.73;45.86
46710;BME280;32442;51.514;-0.178;2022-11-20T13:01:47;100462.03;;;21.73;44.71
46710;BME280;32442;51.514;-0.178;2022-11-20T13:06:46;100469.16;;;21.71;44.10
46710;BME280;32442;51.514;-0.178;2022-11-20T13:09:14;100465.50;;;21.70;44.27
46710;BME280;32442;51.514;-0.178;2022-11-20T13:14:13;100474.25;;;21.69;43.94
46710;BME280;32442;51.514;-0.178;2022-11-20T13:19:31;100481.03;;;21.68;43.93
46710;BME280;32442;51.514;-0.178;2022-11-20T13:21:58;100491.44;;;21.67;44.34
46710;BME280;32442;51.514;-0.178;2022-11-20T13:24:26;100489.31;;;21.64;44.26
46710;BME280;32442;51.514;-0.178;2022-11-20T13:29:27;100484.84;;;21.63;44.15
46710;BME280;32442;51.514;-0.178;2022-11-20T13:32:02;100486.50;;;21.64;43.56
46710;BME280;32442;51.514;-0.178;2022-11-20T13:34:34;100483.16;;;21.62;43.92
46710;BME280;32442;51.514;-0.178;2022-11-20T13:37:02;100495.25;;;21.63;43.51
46710;BME280;32442;51.514;-0.178;2022-11-20T13:39:31;100504.50;;;21.63;43.79
46710;BME280;32442;51.514;-0.178;2022-11-20T13:41:59;100502.03;;;21.62;43.52
46710;BME280;32442;51.514;-0.178;2022-11-20T13:44:29;100497.22;;;21.62;43.38
46710;BME280;32442;51.514;-0.178;2022-11-20T13:46:55;100499.25;;;21.62;43.44
46710;BME280;32442;51.514;-0.178;2022-11-20T13:49:25;100503.50;;;21.59;43.25
46710;BME280;32442;51.514;-0.178;2022-11-20T13:51:56;100492.94;;;21.56;42.88
46710;BME280;32442;51.514;-0.178;2022-11-20T13:57:08;100480.53;;;21.57;43.39
46710;BME280;32442;51.514;-0.178;2022-11-20T13:59:44;100468.78;;;21.55;43.64
46710;BME280;32442;51.514;-0.178;2022-11-20T14:02:15;100453.41;;;21.53;43.44
46710;BME280;32442;51.514;-0.178;2022-11-20T14:04:43;100450.25;;;21.54;43.50
46710;BME280;32442;51.514;-0.178;2022-11-20T14:07:11;100446.59;;;21.54;43.77
46710;BME280;32442;51.514;-0.178;2022-11-20T14:09:38;100440.16;;;21.53;43.44
46710;BME280;32442;51.514;-0.178;2022-11-20T14:12:12;100444.78;;;21.49;43.32
46710;BME280;32442;51.514;-0.178;2022-11-20T14:14:47;100447.59;;;21.49;43.43
46710;BME280;32442;51.514;-0.178;2022-11-20T14:17:21;100446.75;;;21.49;43.29
46710;BME280;32442;51.514;-0.178;2022-11-20T14:19:49;100443.16;;;21.48;43.20
46710;BME280;32442;51.514;-0.178;2022-11-20T14:24:47;100435.03;;;21.47;43.32
46710;BME280;32442;51.514;-0.178;2022-11-20T14:27:14;100428.56;;;21.46;43.67